Gaschem Orca — D5NS8 — position and weather

sailwx.info

Track history (hours):
 
Tides and Currents Weather Stations Pressure Air Temp Water Temp Dewpoint Dewpoint Depression Visibility Wind Speed Wind Dir Waves Ship Positions

Gaschem Orca

Last reported at 2017-Sep-15 00:19 UTC. Time now 2017-Sep-20 22:09 UTC.
Position N 37°57' W 031°34'.

Length 189 m; draft 7.1 m.

Type: Ship. MMSI: 636018002.

Date/timePositionNaut miles runAvg speedWind from/ knotsBaromVisibWave heightAir tempDewpointWater temp
2017-Sep-15 00:19N 37°57' W 031°34'  
2017-Sep-10 00:46N 57°56' W 001°31'416.5
2017-Sep-10 00:30N 57°51' W 001°31'816.4
2017-Sep-10 00:00N 57°43' W 001°31'816.8
2017-Sep-09 23:30N 57°35' W 001°30'917.2
2017-Sep-09 23:00N 57°26' W 001°29'917.5
2017-Sep-09 22:30N 57°17' W 001°27'8317.8
2017-Sep-09 17:51N 55°55' W 001°15'716.5
2017-Sep-09 17:26N 55°48' W 001°14'716.2
2017-Sep-09 16:59N 55°41' W 001°13'816.3
2017-Sep-09 16:30N 55°33' W 001°12'816.1
2017-Sep-09 16:00N 55°25' W 001°11'816.6
2017-Sep-09 15:30N 55°17' W 001°10'917.1
2017-Sep-09 15:00N 55°08' W 001°10'816.4
2017-Sep-09 14:30N 54°60' W 001°09'816.8
2017-Sep-09 14:00N 54°52' W 001°07'816.9
2017-Sep-09 13:30N 54°43' W 001°05'4 0.1
2017-Sep-07 18:22N 54°40' W 001°07'411.3
2017-Sep-07 18:00N 54°41' W 001°00'713.4
2017-Sep-07 17:29N 54°40' W 000°48'914.9
2017-Sep-07 16:53N 54°40' W 000°33'614.8
2017-Sep-07 16:30N 54°37' W 000°25'714.8
2017-Sep-07 16:00N 54°33' W 000°13'715.0
2017-Sep-07 15:30N 54°30' W 000°02'815.2
2017-Sep-07 15:00N 54°26' E 000°09'815.5
2017-Sep-07 14:30N 54°22' E 000°21'815.9
2017-Sep-07 14:00N 54°19' E 000°33'17013.9
2017-Sep-07 01:47N 51°45' E 002°33'918.0
2017-Sep-07 01:19N 51°39' E 002°25'618.1
2017-Sep-07 00:59N 51°34' E 002°19'817.5
2017-Sep-07 00:30N 51°27' E 002°13'917.6
2017-Sep-07 00:00N 51°18' E 002°09'817.0
2017-Sep-06 23:31N 51°12' E 001°59'918.2
2017-Sep-06 23:00N 51°08' E 001°46'918.0
2017-Sep-06 22:30N 51°02' E 001°36'917.2
2017-Sep-06 22:00N 50°56' E 001°26'816.4
2017-Sep-06 21:30N 50°48' E 001°23'815.9
2017-Sep-06 21:00N 50°41' E 001°17'816.9
2017-Sep-06 20:30N 50°35' E 001°07'916.8
2017-Sep-06 19:59N 50°29' E 000°56'817.0
2017-Sep-06 19:30N 50°28' E 000°44'817.0
2017-Sep-06 19:00N 50°26' E 000°31'816.7
2017-Sep-06 18:30N 50°24' E 000°18'1016.2
2017-Sep-06 17:55N 50°21' E 000°03'615.6
2017-Sep-06 17:31N 50°19' W 000°06'3412.6
2017-Sep-06 14:49N 50°12' W 000°57'413.3
2017-Sep-06 14:30N 50°11' W 001°04'713.1
2017-Sep-06 14:00N 50°09' W 001°14'613.0
2017-Sep-06 13:30N 50°07' W 001°24'713.2
2017-Sep-06 13:01N 50°06' W 001°34'713.6
2017-Sep-06 12:30N 50°03' W 001°43'714.0
2017-Sep-06 12:00N 50°01' W 001°53'2615.7
2017-Sep-06 10:21N 49°54' W 002°32'616.8
2017-Sep-06 10:00N 49°52' W 002°41'816.9
2017-Sep-06 09:30N 49°50' W 002°54'917.0
2017-Sep-06 09:00N 49°47' W 003°06'917.0
2017-Sep-06 08:30N 49°45' W 003°19'917.2
2017-Sep-06 08:00N 49°43' W 003°32'917.4
2017-Sep-06 07:30N 49°40' W 003°45'12117.6
2017-Sep-06 00:38N 48°58' W 006°38'716.7
2017-Sep-06 00:13N 48°55' W 006°48'  
Track history (hours):
 
Tides and Currents Weather Stations Pressure Air Temp Water Temp Dewpoint Dewpoint Depression Visibility Wind Speed Wind Dir Waves Ship Positions

Gaschem Orca

Last reported at 2017-Sep-15 00:19 UTC. Time now 2017-Sep-20 22:09 UTC.
Position N 37°57' W 031°34'.

Length 189 m; draft 7.1 m.

Type: Ship. MMSI: 636018002.

Date/timePositionNaut miles runAvg speedWind from/ knotsBaromVisibWave heightAir tempDewpointWater temp
2017-Sep-15 00:19N 37°57' W 031°34'  
2017-Sep-10 00:46N 57°56' W 001°31'416.5
2017-Sep-10 00:30N 57°51' W 001°31'816.4
2017-Sep-10 00:00N 57°43' W 001°31'816.8
2017-Sep-09 23:30N 57°35' W 001°30'917.2
2017-Sep-09 23:00N 57°26' W 001°29'917.5
2017-Sep-09 22:30N 57°17' W 001°27'8317.8
2017-Sep-09 17:51N 55°55' W 001°15'716.5
2017-Sep-09 17:26N 55°48' W 001°14'716.2
2017-Sep-09 16:59N 55°41' W 001°13'816.3
2017-Sep-09 16:30N 55°33' W 001°12'816.1
2017-Sep-09 16:00N 55°25' W 001°11'816.6
2017-Sep-09 15:30N 55°17' W 001°10'917.1
2017-Sep-09 15:00N 55°08' W 001°10'816.4
2017-Sep-09 14:30N 54°60' W 001°09'816.8
2017-Sep-09 14:00N 54°52' W 001°07'816.9
2017-Sep-09 13:30N 54°43' W 001°05'4 0.1
2017-Sep-07 18:22N 54°40' W 001°07'411.3
2017-Sep-07 18:00N 54°41' W 001°00'713.4
2017-Sep-07 17:29N 54°40' W 000°48'914.9
2017-Sep-07 16:53N 54°40' W 000°33'614.8
2017-Sep-07 16:30N 54°37' W 000°25'714.8
2017-Sep-07 16:00N 54°33' W 000°13'715.0
2017-Sep-07 15:30N 54°30' W 000°02'815.2
2017-Sep-07 15:00N 54°26' E 000°09'815.5
2017-Sep-07 14:30N 54°22' E 000°21'815.9
2017-Sep-07 14:00N 54°19' E 000°33'17013.9
2017-Sep-07 01:47N 51°45' E 002°33'918.0
2017-Sep-07 01:19N 51°39' E 002°25'618.1
2017-Sep-07 00:59N 51°34' E 002°19'817.5
2017-Sep-07 00:30N 51°27' E 002°13'917.6
2017-Sep-07 00:00N 51°18' E 002°09'817.0
2017-Sep-06 23:31N 51°12' E 001°59'918.2
2017-Sep-06 23:00N 51°08' E 001°46'918.0
2017-Sep-06 22:30N 51°02' E 001°36'917.2
2017-Sep-06 22:00N 50°56' E 001°26'816.4
2017-Sep-06 21:30N 50°48' E 001°23'815.9
2017-Sep-06 21:00N 50°41' E 001°17'816.9
2017-Sep-06 20:30N 50°35' E 001°07'916.8
2017-Sep-06 19:59N 50°29' E 000°56'817.0
2017-Sep-06 19:30N 50°28' E 000°44'817.0
2017-Sep-06 19:00N 50°26' E 000°31'816.7
2017-Sep-06 18:30N 50°24' E 000°18'1016.2
2017-Sep-06 17:55N 50°21' E 000°03'615.6
2017-Sep-06 17:31N 50°19' W 000°06'3412.6
2017-Sep-06 14:49N 50°12' W 000°57'413.3
2017-Sep-06 14:30N 50°11' W 001°04'713.1
2017-Sep-06 14:00N 50°09' W 001°14'613.0
2017-Sep-06 13:30N 50°07' W 001°24'713.2
2017-Sep-06 13:01N 50°06' W 001°34'713.6
2017-Sep-06 12:30N 50°03' W 001°43'714.0
2017-Sep-06 12:00N 50°01' W 001°53'2615.7
2017-Sep-06 10:21N 49°54' W 002°32'616.8
2017-Sep-06 10:00N 49°52' W 002°41'816.9
2017-Sep-06 09:30N 49°50' W 002°54'917.0
2017-Sep-06 09:00N 49°47' W 003°06'917.0
2017-Sep-06 08:30N 49°45' W 003°19'917.2
2017-Sep-06 08:00N 49°43' W 003°32'917.4
2017-Sep-06 07:30N 49°40' W 003°45'12117.6
2017-Sep-06 00:38N 48°58' W 006°38'716.7
2017-Sep-06 00:13N 48°55' W 006°48'  

Dump ship's entire track history